Laud, Indiana
Current Conditions -  °F | °C
As of 12:54 PM on Tuesday 21 Oct 2014 (Local Time) from KFWA Reporting Station
Overcast Overcast  
Wind Chill: 51°   Ceiling: 2400
Heat Index: 51°   Visibility: 10mi
Dew Point: 43°   Wind: 12mph
Humidity: 74%   Direction: 360°N
Pressure: 30.09"   Gusts: NA
Location:  41.1479°N, 85.4772°W
Report Text: KFWA 211654Z 36010KT 10SM OVC024 11/06 A3009 RMK AO2 SLP190 T01060061
Loading
Personal Weather Stations






























Interactive Weather Map
Tropical Storm Tracking
New forecast layout! Learn more

10-Day Weather Forecast

Advertisements
Track Severe Weather on mobile